sensor_id;sensor_type;location;lat;lon;timestamp;P1;durP1;ratioP1;P2;durP2;ratioP2
51985;SDS011;38002;53.296;6.600;2022-10-31T00:02:17;15.93;;;9.45;;
51985;SDS011;38002;53.296;6.600;2022-10-31T00:07:17;20.67;;;10.38;;
51985;SDS011;38002;53.296;6.600;2022-10-31T00:12:18;22.50;;;11.32;;
51985;SDS011;38002;53.296;6.600;2022-10-31T00:17:18;16.48;;;9.40;;
51985;SDS011;38002;53.296;6.600;2022-10-31T00:22:19;19.50;;;10.10;;
51985;SDS011;38002;53.296;6.600;2022-10-31T00:27:19;18.52;;;9.80;;
51985;SDS011;38002;53.296;6.600;2022-10-31T00:32:21;13.20;;;7.75;;
51985;SDS011;38002;53.296;6.600;2022-10-31T00:37:21;15.80;;;9.60;;
51985;SDS011;38002;53.296;6.600;2022-10-31T00:42:22;18.27;;;9.43;;
51985;SDS011;38002;53.296;6.600;2022-10-31T00:47:22;16.50;;;8.48;;
51985;SDS011;38002;53.296;6.600;2022-10-31T00:52:22;20.23;;;10.38;;
51985;SDS011;38002;53.296;6.600;2022-10-31T00:57:23;12.88;;;7.30;;
51985;SDS011;38002;53.296;6.600;2022-10-31T01:02:23;15.18;;;9.68;;
51985;SDS011;38002;53.296;6.600;2022-10-31T01:07:24;16.38;;;8.52;;
51985;SDS011;38002;53.296;6.600;2022-10-31T01:12:24;14.80;;;9.15;;
51985;SDS011;38002;53.296;6.600;2022-10-31T01:17:25;14.23;;;9.43;;
51985;SDS011;38002;53.296;6.600;2022-10-31T01:22:25;16.67;;;11.70;;
51985;SDS011;38002;53.296;6.600;2022-10-31T01:27:25;27.17;;;13.02;;
51985;SDS011;38002;53.296;6.600;2022-10-31T01:32:27;23.08;;;13.30;;
51985;SDS011;38002;53.296;6.600;2022-10-31T01:37:31;20.42;;;12.32;;
51985;SDS011;38002;53.296;6.600;2022-10-31T01:42:31;20.25;;;12.88;;
51985;SDS011;38002;53.296;6.600;2022-10-31T01:47:38;17.60;;;11.68;;
51985;SDS011;38002;53.296;6.600;2022-10-31T01:52:49;19.83;;;11.55;;
51985;SDS011;38002;53.296;6.600;2022-10-31T01:57:52;18.38;;;8.93;;
51985;SDS011;38002;53.296;6.600;2022-10-31T02:02:55;14.90;;;10.02;;
51985;SDS011;38002;53.296;6.600;2022-10-31T02:13:14;18.88;;;9.52;;
51985;SDS011;38002;53.296;6.600;2022-10-31T02:18:15;17.17;;;10.00;;
51985;SDS011;38002;53.296;6.600;2022-10-31T02:34:31;20.92;;;11.48;;
51985;SDS011;38002;53.296;6.600;2022-10-31T02:45:14;18.75;;;10.85;;
51985;SDS011;38002;53.296;6.600;2022-10-31T02:50:26;17.27;;;11.13;;
51985;SDS011;38002;53.296;6.600;2022-10-31T03:00:37;13.48;;;9.80;;
51985;SDS011;38002;53.296;6.600;2022-10-31T03:06:05;16.52;;;11.30;;
51985;SDS011;38002;53.296;6.600;2022-10-31T03:11:18;22.50;;;10.95;;
51985;SDS011;38002;53.296;6.600;2022-10-31T03:26:54;16.83;;;9.65;;
51985;SDS011;38002;53.296;6.600;2022-10-31T03:31:59;15.52;;;9.93;;
51985;SDS011;38002;53.296;6.600;2022-10-31T03:37:06;17.90;;;11.02;;
51985;SDS011;38002;53.296;6.600;2022-10-31T03:42:09;12.77;;;9.40;;
51985;SDS011;38002;53.296;6.600;2022-10-31T03:47:13;17.08;;;11.60;;
51985;SDS011;38002;53.296;6.600;2022-10-31T03:57:43;20.45;;;10.55;;
51985;SDS011;38002;53.296;6.600;2022-10-31T04:03:00;15.25;;;10.10;;
51985;SDS011;38002;53.296;6.600;2022-10-31T04:08:17;20.02;;;11.68;;
51985;SDS011;38002;53.296;6.600;2022-10-31T04:13:26;17.92;;;10.55;;
51985;SDS011;38002;53.296;6.600;2022-10-31T04:18:29;16.30;;;11.15;;
51985;SDS011;38002;53.296;6.600;2022-10-31T04:23:29;21.42;;;11.00;;
51985;SDS011;38002;53.296;6.600;2022-10-31T04:28:30;15.30;;;9.47;;
51985;SDS011;38002;53.296;6.600;2022-10-31T04:38:33;13.33;;;9.63;;
51985;SDS011;38002;53.296;6.600;2022-10-31T04:43:33;22.65;;;11.80;;
51985;SDS011;38002;53.296;6.600;2022-10-31T04:48:34;16.50;;;11.25;;
51985;SDS011;38002;53.296;6.600;2022-10-31T04:53:34;16.70;;;10.30;;
51985;SDS011;38002;53.296;6.600;2022-10-31T04:58:34;17.95;;;10.50;;
51985;SDS011;38002;53.296;6.600;2022-10-31T05:03:35;15.40;;;10.38;;
51985;SDS011;38002;53.296;6.600;2022-10-31T05:08:35;12.57;;;10.18;;
51985;SDS011;38002;53.296;6.600;2022-10-31T05:13:36;13.60;;;10.20;;
51985;SDS011;38002;53.296;6.600;2022-10-31T05:18:36;13.02;;;9.48;;
51985;SDS011;38002;53.296;6.600;2022-10-31T05:23:36;10.75;;;8.52;;
51985;SDS011;38002;53.296;6.600;2022-10-31T05:28:37;15.52;;;9.02;;
51985;SDS011;38002;53.296;6.600;2022-10-31T05:33:37;12.45;;;9.10;;
51985;SDS011;38002;53.296;6.600;2022-10-31T05:38:38;14.88;;;9.13;;
51985;SDS011;38002;53.296;6.600;2022-10-31T05:43:38;17.95;;;10.25;;
51985;SDS011;38002;53.296;6.600;2022-10-31T05:48:38;18.88;;;10.90;;
51985;SDS011;38002;53.296;6.600;2022-10-31T05:53:39;13.05;;;9.65;;
51985;SDS011;38002;53.296;6.600;2022-10-31T05:58:39;12.93;;;9.20;;
51985;SDS011;38002;53.296;6.600;2022-10-31T06:03:40;14.57;;;9.63;;
51985;SDS011;38002;53.296;6.600;2022-10-31T06:08:40;20.25;;;10.88;;
51985;SDS011;38002;53.296;6.600;2022-10-31T06:13:41;18.35;;;11.32;;
51985;SDS011;38002;53.296;6.600;2022-10-31T06:18:41;16.33;;;9.52;;
51985;SDS011;38002;53.296;6.600;2022-10-31T06:23:41;14.50;;;10.90;;
51985;SDS011;38002;53.296;6.600;2022-10-31T06:28:42;13.93;;;9.38;;
51985;SDS011;38002;53.296;6.600;2022-10-31T06:33:42;17.75;;;10.77;;
51985;SDS011;38002;53.296;6.600;2022-10-31T06:38:43;17.80;;;11.43;;
51985;SDS011;38002;53.296;6.600;2022-10-31T06:43:46;15.18;;;10.30;;
51985;SDS011;38002;53.296;6.600;2022-10-31T06:48:47;14.15;;;10.77;;
51985;SDS011;38002;53.296;6.600;2022-10-31T06:53:47;15.75;;;10.23;;
51985;SDS011;38002;53.296;6.600;2022-10-31T06:58:47;13.40;;;9.85;;
51985;SDS011;38002;53.296;6.600;2022-10-31T07:03:48;14.35;;;10.27;;
51985;SDS011;38002;53.296;6.600;2022-10-31T07:08:48;18.73;;;10.20;;
51985;SDS011;38002;53.296;6.600;2022-10-31T07:13:49;14.45;;;9.70;;
51985;SDS011;38002;53.296;6.600;2022-10-31T07:18:49;14.45;;;10.68;;
51985;SDS011;38002;53.296;6.600;2022-10-31T07:23:50;16.60;;;9.95;;
51985;SDS011;38002;53.296;6.600;2022-10-31T07:28:50;18.00;;;10.43;;
51985;SDS011;38002;53.296;6.600;2022-10-31T07:33:51;20.13;;;10.98;;
51985;SDS011;38002;53.296;6.600;2022-10-31T07:38:51;19.73;;;12.52;;
51985;SDS011;38002;53.296;6.600;2022-10-31T07:43:52;18.30;;;12.88;;
51985;SDS011;38002;53.296;6.600;2022-10-31T07:48:52;17.17;;;12.45;;
51985;SDS011;38002;53.296;6.600;2022-10-31T07:53:52;22.08;;;14.18;;
51985;SDS011;38002;53.296;6.600;2022-10-31T07:58:53;26.90;;;15.05;;
51985;SDS011;38002;53.296;6.600;2022-10-31T08:03:53;20.67;;;14.20;;
51985;SDS011;38002;53.296;6.600;2022-10-31T08:08:54;20.52;;;13.27;;
51985;SDS011;38002;53.296;6.600;2022-10-31T08:13:54;19.30;;;11.73;;
51985;SDS011;38002;53.296;6.600;2022-10-31T08:18:55;19.83;;;12.73;;
51985;SDS011;38002;53.296;6.600;2022-10-31T08:23:55;23.08;;;14.85;;
51985;SDS011;38002;53.296;6.600;2022-10-31T08:28:56;26.40;;;16.85;;
51985;SDS011;38002;53.296;6.600;2022-10-31T08:33:56;28.00;;;15.55;;
51985;SDS011;38002;53.296;6.600;2022-10-31T08:38:57;19.00;;;14.02;;
51985;SDS011;38002;53.296;6.600;2022-10-31T08:43:57;25.65;;;15.82;;
51985;SDS011;38002;53.296;6.600;2022-10-31T08:48:57;26.25;;;16.52;;
51985;SDS011;38002;53.296;6.600;2022-10-31T08:53:58;21.77;;;14.07;;
51985;SDS011;38002;53.296;6.600;2022-10-31T08:58:58;23.10;;;15.98;;
51985;SDS011;38002;53.296;6.600;2022-10-31T09:03:59;25.10;;;17.00;;
51985;SDS011;38002;53.296;6.600;2022-10-31T09:08:59;28.58;;;17.63;;
51985;SDS011;38002;53.296;6.600;2022-10-31T09:14:00;24.02;;;16.20;;
51985;SDS011;38002;53.296;6.600;2022-10-31T09:19:00;29.90;;;16.13;;
51985;SDS011;38002;53.296;6.600;2022-10-31T09:24:01;22.83;;;15.82;;
51985;SDS011;38002;53.296;6.600;2022-10-31T09:29:01;23.63;;;14.88;;
51985;SDS011;38002;53.296;6.600;2022-10-31T09:34:02;24.83;;;16.13;;
51985;SDS011;38002;53.296;6.600;2022-10-31T09:39:02;23.67;;;16.40;;
51985;SDS011;38002;53.296;6.600;2022-10-31T09:44:06;29.00;;;16.92;;
51985;SDS011;38002;53.296;6.600;2022-10-31T09:54:34;28.15;;;16.10;;
51985;SDS011;38002;53.296;6.600;2022-10-31T09:59:42;20.27;;;14.02;;
51985;SDS011;38002;53.296;6.600;2022-10-31T10:21:25;16.50;;;11.77;;
51985;SDS011;38002;53.296;6.600;2022-10-31T10:31:55;19.38;;;12.32;;
51985;SDS011;38002;53.296;6.600;2022-10-31T10:42:07;22.77;;;13.18;;
51985;SDS011;38002;53.296;6.600;2022-10-31T10:47:34;18.48;;;10.52;;
51985;SDS011;38002;53.296;6.600;2022-10-31T11:03:02;12.25;;;8.10;;
51985;SDS011;38002;53.296;6.600;2022-10-31T11:08:05;13.88;;;8.48;;
51985;SDS011;38002;53.296;6.600;2022-10-31T11:18:25;8.27;;;6.85;;
51985;SDS011;38002;53.296;6.600;2022-10-31T11:23:28;9.80;;;7.03;;
51985;SDS011;38002;53.296;6.600;2022-10-31T11:28:29;11.05;;;8.23;;
51985;SDS011;38002;53.296;6.600;2022-10-31T11:33:33;11.93;;;7.78;;
51985;SDS011;38002;53.296;6.600;2022-10-31T11:38:40;12.30;;;8.63;;
51985;SDS011;38002;53.296;6.600;2022-10-31T11:43:54;12.50;;;8.98;;
51985;SDS011;38002;53.296;6.600;2022-10-31T11:48:55;11.32;;;8.27;;
51985;SDS011;38002;53.296;6.600;2022-10-31T11:53:59;11.50;;;8.70;;
51985;SDS011;38002;53.296;6.600;2022-10-31T11:59:03;10.77;;;7.40;;
51985;SDS011;38002;53.296;6.600;2022-10-31T12:04:07;10.02;;;7.18;;
51985;SDS011;38002;53.296;6.600;2022-10-31T12:09:22;16.70;;;8.90;;
51985;SDS011;38002;53.296;6.600;2022-10-31T13:02:13;12.32;;;5.78;;
51985;SDS011;38002;53.296;6.600;2022-10-31T13:07:25;11.38;;;6.28;;
51985;SDS011;38002;53.296;6.600;2022-10-31T13:12:31;14.10;;;5.95;;
51985;SDS011;38002;53.296;6.600;2022-10-31T13:17:34;7.97;;;5.40;;
51985;SDS011;38002;53.296;6.600;2022-10-31T13:22:39;7.93;;;3.95;;
51985;SDS011;38002;53.296;6.600;2022-10-31T13:27:46;9.18;;;4.70;;
51985;SDS011;38002;53.296;6.600;2022-10-31T13:38:34;6.72;;;4.78;;
51985;SDS011;38002;53.296;6.600;2022-10-31T13:48:50;13.73;;;5.07;;
51985;SDS011;38002;53.296;6.600;2022-10-31T14:04:17;8.55;;;4.28;;
51985;SDS011;38002;53.296;6.600;2022-10-31T14:14:39;11.07;;;5.77;;
51985;SDS011;38002;53.296;6.600;2022-10-31T14:19:55;9.32;;;4.30;;
51985;SDS011;38002;53.296;6.600;2022-10-31T14:25:35;10.88;;;5.55;;
51985;SDS011;38002;53.296;6.600;2022-10-31T14:30:36;9.27;;;5.30;;
51985;SDS011;38002;53.296;6.600;2022-10-31T14:35:51;10.30;;;5.07;;
51985;SDS011;38002;53.296;6.600;2022-10-31T14:51:52;11.18;;;5.63;;
51985;SDS011;38002;53.296;6.600;2022-10-31T14:56:53;9.53;;;5.03;;
51985;SDS011;38002;53.296;6.600;2022-10-31T15:02:01;17.52;;;5.43;;
51985;SDS011;38002;53.296;6.600;2022-10-31T15:07:18;21.05;;;6.60;;
51985;SDS011;38002;53.296;6.600;2022-10-31T15:17:27;7.38;;;5.90;;
51985;SDS011;38002;53.296;6.600;2022-10-31T15:22:28;9.90;;;6.00;;
51985;SDS011;38002;53.296;6.600;2022-10-31T15:27:31;12.50;;;5.55;;
51985;SDS011;38002;53.296;6.600;2022-10-31T15:32:33;11.38;;;5.95;;
51985;SDS011;38002;53.296;6.600;2022-10-31T15:37:33;9.97;;;7.03;;
51985;SDS011;38002;53.296;6.600;2022-10-31T15:42:35;9.02;;;5.80;;
51985;SDS011;38002;53.296;6.600;2022-10-31T15:48:15;11.95;;;7.03;;
51985;SDS011;38002;53.296;6.600;2022-10-31T15:53:59;14.18;;;8.52;;
51985;SDS011;38002;53.296;6.600;2022-10-31T15:58:50;15.95;;;8.63;;
51985;SDS011;38002;53.296;6.600;2022-10-31T16:09:20;9.43;;;6.47;;
51985;SDS011;38002;53.296;6.600;2022-10-31T16:14:23;19.48;;;8.80;;
51985;SDS011;38002;53.296;6.600;2022-10-31T16:19:27;18.05;;;9.02;;
51985;SDS011;38002;53.296;6.600;2022-10-31T16:24:33;13.50;;;8.68;;
51985;SDS011;38002;53.296;6.600;2022-10-31T16:29:42;11.43;;;8.18;;
51985;SDS011;38002;53.296;6.600;2022-10-31T16:34:44;17.42;;;8.82;;
51985;SDS011;38002;53.296;6.600;2022-10-31T16:39:44;13.05;;;8.18;;
51985;SDS011;38002;53.296;6.600;2022-10-31T16:44:44;16.73;;;7.95;;
51985;SDS011;38002;53.296;6.600;2022-10-31T16:49:48;10.23;;;7.22;;
51985;SDS011;38002;53.296;6.600;2022-10-31T16:54:52;12.02;;;7.40;;
51985;SDS011;38002;53.296;6.600;2022-10-31T16:59:53;12.93;;;7.47;;
51985;SDS011;38002;53.296;6.600;2022-10-31T17:04:54;15.60;;;8.80;;
51985;SDS011;38002;53.296;6.600;2022-10-31T17:09:54;14.65;;;8.73;;
51985;SDS011;38002;53.296;6.600;2022-10-31T17:14:54;12.93;;;8.75;;
51985;SDS011;38002;53.296;6.600;2022-10-31T17:19:55;11.95;;;9.13;;
51985;SDS011;38002;53.296;6.600;2022-10-31T17:24:56;17.10;;;9.98;;
51985;SDS011;38002;53.296;6.600;2022-10-31T17:29:56;15.63;;;8.38;;
51985;SDS011;38002;53.296;6.600;2022-10-31T17:34:56;11.70;;;8.63;;
51985;SDS011;38002;53.296;6.600;2022-10-31T17:39:57;17.50;;;11.35;;
51985;SDS011;38002;53.296;6.600;2022-10-31T17:44:57;16.50;;;11.68;;
51985;SDS011;38002;53.296;6.600;2022-10-31T17:49:58;20.83;;;12.82;;
51985;SDS011;38002;53.296;6.600;2022-10-31T17:54:59;22.70;;;13.73;;
51985;SDS011;38002;53.296;6.600;2022-10-31T18:00:00;23.40;;;13.75;;
51985;SDS011;38002;53.296;6.600;2022-10-31T18:10:03;18.33;;;11.75;;
51985;SDS011;38002;53.296;6.600;2022-10-31T18:15:04;26.75;;;14.20;;
51985;SDS011;38002;53.296;6.600;2022-10-31T18:20:05;26.85;;;15.65;;
51985;SDS011;38002;53.296;6.600;2022-10-31T18:25:06;17.70;;;10.75;;
51985;SDS011;38002;53.296;6.600;2022-10-31T18:30:07;19.70;;;12.55;;
51985;SDS011;38002;53.296;6.600;2022-10-31T18:35:08;25.48;;;15.93;;
51985;SDS011;38002;53.296;6.600;2022-10-31T18:40:09;20.15;;;12.40;;
51985;SDS011;38002;53.296;6.600;2022-10-31T18:45:09;34.85;;;17.13;;
51985;SDS011;38002;53.296;6.600;2022-10-31T18:50:10;25.08;;;16.38;;
51985;SDS011;38002;53.296;6.600;2022-10-31T18:55:10;26.65;;;18.17;;
51985;SDS011;38002;53.296;6.600;2022-10-31T19:00:11;35.83;;;19.77;;
51985;SDS011;38002;53.296;6.600;2022-10-31T19:05:13;37.08;;;20.85;;
51985;SDS011;38002;53.296;6.600;2022-10-31T19:10:13;32.70;;;19.45;;
51985;SDS011;38002;53.296;6.600;2022-10-31T19:15:14;36.97;;;21.42;;
51985;SDS011;38002;53.296;6.600;2022-10-31T19:20:14;34.70;;;20.80;;
51985;SDS011;38002;53.296;6.600;2022-10-31T19:25:15;34.78;;;18.75;;
51985;SDS011;38002;53.296;6.600;2022-10-31T19:30:15;37.63;;;23.33;;
51985;SDS011;38002;53.296;6.600;2022-10-31T19:35:16;34.42;;;21.92;;
51985;SDS011;38002;53.296;6.600;2022-10-31T19:40:16;41.08;;;23.30;;
51985;SDS011;38002;53.296;6.600;2022-10-31T19:45:17;35.63;;;18.10;;
51985;SDS011;38002;53.296;6.600;2022-10-31T19:50:18;39.25;;;23.15;;
51985;SDS011;38002;53.296;6.600;2022-10-31T19:55:18;38.60;;;23.10;;
51985;SDS011;38002;53.296;6.600;2022-10-31T20:00:18;36.15;;;20.23;;
51985;SDS011;38002;53.296;6.600;2022-10-31T20:05:19;38.97;;;22.70;;
51985;SDS011;38002;53.296;6.600;2022-10-31T20:10:20;37.37;;;19.80;;
51985;SDS011;38002;53.296;6.600;2022-10-31T20:15:20;41.80;;;23.75;;
51985;SDS011;38002;53.296;6.600;2022-10-31T20:20:21;40.47;;;23.23;;
51985;SDS011;38002;53.296;6.600;2022-10-31T20:25:21;41.38;;;24.48;;
51985;SDS011;38002;53.296;6.600;2022-10-31T20:30:22;45.95;;;22.17;;
51985;SDS011;38002;53.296;6.600;2022-10-31T20:35:22;45.47;;;23.08;;
51985;SDS011;38002;53.296;6.600;2022-10-31T20:40:23;35.75;;;20.48;;
51985;SDS011;38002;53.296;6.600;2022-10-31T20:45:23;55.63;;;22.65;;
51985;SDS011;38002;53.296;6.600;2022-10-31T20:50:24;36.65;;;18.80;;
51985;SDS011;38002;53.296;6.600;2022-10-31T20:55:25;47.92;;;22.85;;
51985;SDS011;38002;53.296;6.600;2022-10-31T21:00:25;49.15;;;24.60;;
51985;SDS011;38002;53.296;6.600;2022-10-31T21:05:26;41.53;;;22.17;;
51985;SDS011;38002;53.296;6.600;2022-10-31T21:10:27;45.92;;;24.27;;
51985;SDS011;38002;53.296;6.600;2022-10-31T21:15:27;43.03;;;23.08;;
51985;SDS011;38002;53.296;6.600;2022-10-31T21:20:27;52.75;;;24.58;;
51985;SDS011;38002;53.296;6.600;2022-10-31T21:25:28;42.97;;;22.55;;
51985;SDS011;38002;53.296;6.600;2022-10-31T21:30:28;43.40;;;23.77;;
51985;SDS011;38002;53.296;6.600;2022-10-31T21:35:29;38.58;;;19.50;;
51985;SDS011;38002;53.296;6.600;2022-10-31T21:40:29;41.88;;;23.85;;
51985;SDS011;38002;53.296;6.600;2022-10-31T21:45:30;39.15;;;21.48;;
51985;SDS011;38002;53.296;6.600;2022-10-31T21:50:30;40.25;;;22.42;;
51985;SDS011;38002;53.296;6.600;2022-10-31T21:55:31;41.38;;;23.02;;
51985;SDS011;38002;53.296;6.600;2022-10-31T22:00:31;36.20;;;18.20;;
51985;SDS011;38002;53.296;6.600;2022-10-31T22:05:32;30.85;;;19.73;;
51985;SDS011;38002;53.296;6.600;2022-10-31T22:10:33;33.83;;;17.92;;
51985;SDS011;38002;53.296;6.600;2022-10-31T22:15:34;43.88;;;21.38;;
51985;SDS011;38002;53.296;6.600;2022-10-31T22:20:34;35.53;;;18.70;;
51985;SDS011;38002;53.296;6.600;2022-10-31T22:25:35;39.83;;;18.40;;
51985;SDS011;38002;53.296;6.600;2022-10-31T22:30:36;38.75;;;19.90;;
51985;SDS011;38002;53.296;6.600;2022-10-31T22:35:37;30.37;;;17.17;;
51985;SDS011;38002;53.296;6.600;2022-10-31T22:40:38;26.05;;;15.55;;
51985;SDS011;38002;53.296;6.600;2022-10-31T22:45:38;28.45;;;15.43;;
51985;SDS011;38002;53.296;6.600;2022-10-31T22:50:39;32.30;;;15.52;;
51985;SDS011;38002;53.296;6.600;2022-10-31T22:55:39;29.98;;;16.23;;
51985;SDS011;38002;53.296;6.600;2022-10-31T23:00:40;22.80;;;13.32;;
51985;SDS011;38002;53.296;6.600;2022-10-31T23:05:41;28.90;;;15.90;;
51985;SDS011;38002;53.296;6.600;2022-10-31T23:10:41;29.45;;;15.25;;
51985;SDS011;38002;53.296;6.600;2022-10-31T23:15:43;26.08;;;14.45;;
51985;SDS011;38002;53.296;6.600;2022-10-31T23:20:49;31.83;;;13.88;;
51985;SDS011;38002;53.296;6.600;2022-10-31T23:25:50;22.45;;;12.68;;
51985;SDS011;38002;53.296;6.600;2022-10-31T23:31:09;26.25;;;10.95;;
51985;SDS011;38002;53.296;6.600;2022-10-31T23:36:10;28.27;;;13.02;;
51985;SDS011;38002;53.296;6.600;2022-10-31T23:41:10;25.85;;;12.98;;
51985;SDS011;38002;53.296;6.600;2022-10-31T23:46:10;18.80;;;9.27;;
51985;SDS011;38002;53.296;6.600;2022-10-31T23:51:11;22.67;;;11.68;;
51985;SDS011;38002;53.296;6.600;2022-10-31T23:56:11;20.77;;;11.35;;
